createdAt,value
2018-01-30T00:03:08.406Z,3.10
2018-01-30T00:05:40.072Z,4.03
2018-01-30T00:11:13.937Z,4.03
2018-01-30T00:13:43.825Z,2.63
2018-01-30T00:16:13.884Z,2.83
2018-01-30T00:18:45.074Z,2.43
2018-01-30T00:21:15.036Z,4.47
2018-01-30T00:23:45.065Z,4.00
2018-01-30T00:26:15.079Z,3.00
2018-01-30T00:28:45.111Z,2.17
2018-01-30T00:31:15.181Z,2.43
2018-01-30T00:36:51.811Z,3.00
2018-01-30T00:39:22.883Z,3.77
2018-01-30T00:41:54.020Z,2.30
2018-01-30T00:44:29.306Z,2.63
2018-01-30T00:46:59.621Z,3.00
2018-01-30T00:49:29.958Z,4.30
2018-01-30T00:52:00.354Z,3.70
2018-01-30T00:54:30.649Z,3.60
2018-01-30T00:57:02.378Z,2.50
2018-01-30T00:59:45.043Z,3.33
2018-01-30T01:02:24.321Z,3.73
2018-01-30T01:04:57.706Z,2.83
2018-01-30T01:16:13.454Z,3.80
2018-01-30T01:18:43.470Z,2.63
2018-01-30T01:21:13.354Z,2.73
2018-01-30T01:23:43.685Z,3.20
2018-01-30T01:26:14.760Z,3.03
2018-01-30T01:28:46.619Z,6.73
2018-01-30T01:31:16.560Z,4.70
2018-01-30T01:33:49.680Z,4.03
2018-01-30T09:22:50.314Z,4.00
2018-01-30T09:25:20.337Z,4.73
2018-01-30T09:27:50.259Z,5.67
2018-01-30T09:30:20.340Z,4.10
2018-01-30T09:32:50.409Z,4.43
2018-01-30T09:35:20.340Z,4.80
2018-01-30T09:37:50.466Z,5.00
2018-01-30T09:40:23.302Z,3.90
2018-01-30T09:45:52.228Z,4.00
2018-01-30T09:48:22.918Z,3.10
2018-01-30T09:50:53.138Z,5.13
2018-01-30T09:53:35.348Z,4.20
2018-01-30T09:56:11.785Z,4.97
2018-01-30T09:58:53.318Z,4.27
2018-01-30T10:01:38.746Z,4.40
2018-01-30T10:07:03.900Z,5.17
2018-01-30T10:09:34.845Z,5.23
2018-01-30T10:12:04.825Z,4.83
2018-01-30T10:14:35.662Z,6.10
2018-01-30T10:17:05.844Z,4.50
2018-01-30T10:19:35.775Z,6.47
2018-01-30T10:22:05.713Z,4.93
2018-01-30T10:24:35.761Z,6.33
2018-01-30T10:27:09.425Z,5.17
2018-01-30T10:29:40.587Z,3.23
2018-01-30T10:32:10.504Z,3.77
2018-01-30T10:37:28.800Z,4.87
2018-01-30T10:40:00.355Z,6.00
2018-01-30T10:42:31.528Z,4.30
2018-01-30T10:45:01.839Z,4.90
2018-01-30T10:47:33.836Z,4.20
2018-01-30T10:50:03.869Z,4.80
2018-01-30T10:52:50.059Z,3.07
2018-01-30T11:04:28.528Z,4.00
2018-01-30T11:06:58.631Z,3.03
2018-01-30T11:09:31.892Z,5.83
2018-01-30T11:14:49.141Z,4.10
2018-01-30T11:17:25.560Z,4.03
2018-01-30T11:19:55.534Z,5.07
2018-01-30T11:22:25.477Z,3.40
2018-01-30T11:24:55.465Z,5.37
2018-01-30T11:27:44.955Z,3.50
2018-01-30T11:30:15.957Z,4.50
2018-01-30T11:32:45.950Z,3.73
2018-01-30T11:35:15.916Z,4.00
2018-01-30T11:37:49.481Z,3.80
2018-01-30T11:40:19.663Z,4.70
2018-01-30T11:42:49.905Z,3.67
2018-01-30T11:45:20.053Z,4.87
2018-01-30T11:47:50.114Z,4.27
2018-01-30T11:50:21.096Z,4.20
2018-01-30T11:52:51.250Z,4.53
2018-01-30T11:55:21.243Z,4.40
2018-01-30T11:57:51.147Z,3.27
2018-01-30T12:00:21.968Z,4.93
2018-01-30T12:06:53.463Z,4.10
2018-01-30T12:09:23.855Z,3.73
2018-01-30T12:11:54.203Z,3.20
2018-01-30T12:14:29.022Z,3.13
2018-01-30T12:17:05.049Z,4.03
2018-01-30T12:19:41.735Z,5.10
2018-01-30T12:27:52.573Z,3.40
2018-01-30T12:58:55.233Z,2.90
2018-01-30T13:20:36.921Z,3.23
2018-01-30T13:23:06.939Z,2.30
2018-01-30T13:44:21.054Z,3.80
2018-01-30T13:46:51.334Z,2.80
2018-01-30T13:49:22.490Z,2.23
2018-01-30T13:51:52.463Z,2.87
2018-01-30T13:54:22.484Z,2.30
2018-01-30T13:56:52.370Z,2.63
2018-01-30T13:59:22.304Z,2.67
2018-01-30T14:01:52.366Z,1.80
2018-01-30T14:04:22.282Z,2.10
2018-01-30T14:06:52.165Z,2.60
2018-01-30T14:09:22.045Z,2.37
2018-01-30T14:11:52.205Z,2.70
2018-01-30T14:14:22.173Z,3.93
2018-01-30T14:17:01.511Z,2.50
2018-01-30T14:19:32.176Z,2.50
2018-01-30T14:22:02.226Z,3.17
2018-01-30T14:24:32.217Z,3.83
2018-01-30T14:27:02.161Z,2.87
2018-01-30T14:29:32.834Z,3.23
2018-01-30T14:32:02.764Z,3.30
2018-01-30T14:34:32.653Z,2.60
2018-01-30T14:37:02.573Z,3.27
2018-01-30T14:39:32.555Z,3.87
2018-01-30T14:42:02.491Z,3.23
2018-01-30T14:44:32.510Z,3.13
2018-01-30T14:47:23.566Z,2.33
2018-01-30T14:49:56.451Z,2.60
2018-01-30T14:52:26.531Z,1.73
2018-01-30T14:54:56.517Z,2.40
2018-01-30T14:57:26.956Z,2.13
2018-01-30T14:59:57.745Z,2.83
2018-01-30T15:02:27.743Z,2.20
2018-01-30T15:04:57.771Z,2.53
2018-01-30T15:07:27.672Z,2.80
2018-01-30T15:09:57.722Z,2.40
2018-01-30T15:12:27.766Z,2.20
2018-01-30T15:14:57.788Z,2.47
2018-01-30T15:17:27.812Z,1.93
2018-01-30T15:20:00.958Z,2.90
2018-01-30T15:22:31.094Z,2.00
2018-01-30T15:25:02.171Z,2.20
2018-01-30T15:27:32.776Z,2.33
2018-01-30T15:30:02.730Z,2.57
2018-01-30T15:32:32.789Z,2.47
2018-01-30T15:35:02.799Z,3.80
2018-01-30T15:37:33.555Z,3.10
2018-01-30T15:40:03.459Z,5.07
2018-01-30T15:42:33.542Z,2.67
2018-01-30T15:45:04.504Z,4.10
2018-01-30T15:47:34.471Z,3.07
2018-01-30T15:50:04.602Z,3.83
2018-01-30T15:52:34.875Z,2.67
2018-01-30T15:55:05.097Z,3.20
2018-01-30T15:57:35.086Z,2.77
2018-01-30T16:00:04.992Z,3.20
2018-01-30T16:02:34.901Z,3.43
2018-01-30T16:05:04.958Z,3.90
2018-01-30T16:07:34.932Z,3.07
2018-01-30T16:10:04.837Z,3.13
2018-01-30T16:12:34.781Z,2.60
2018-01-30T16:15:04.711Z,3.80
2018-01-30T16:17:35.003Z,2.20
2018-01-30T16:20:04.972Z,2.77
2018-01-30T16:22:34.938Z,3.33
2018-01-30T16:25:04.855Z,2.87
2018-01-30T16:27:41.144Z,3.87
2018-01-30T16:30:11.039Z,5.23
2018-01-30T16:32:40.891Z,3.20
2018-01-30T16:35:10.816Z,3.00
2018-01-30T16:37:40.762Z,3.33
2018-01-30T16:40:10.673Z,2.50
2018-01-30T16:42:40.646Z,3.73
2018-01-30T16:45:11.183Z,2.50
2018-01-30T16:47:41.095Z,2.47
2018-01-30T16:50:11.068Z,2.17
2018-01-30T16:52:41.007Z,2.77
2018-01-30T16:55:10.902Z,3.23
2018-01-30T16:57:40.756Z,2.73
2018-01-30T17:00:10.681Z,2.20
2018-01-30T17:02:40.639Z,2.67
2018-01-30T17:05:10.537Z,2.90
2018-01-30T17:07:41.152Z,2.70
2018-01-30T17:10:11.117Z,2.67
2018-01-30T17:12:40.971Z,2.77
2018-01-30T17:15:10.879Z,2.80
2018-01-30T17:17:40.900Z,3.27
2018-01-30T17:20:10.865Z,4.07
2018-01-30T17:22:40.778Z,3.70
2018-01-30T17:25:10.642Z,3.27
2018-01-30T17:27:40.566Z,3.60
2018-01-30T17:30:10.433Z,3.10
2018-01-30T17:32:40.349Z,3.80
2018-01-30T17:35:10.245Z,3.37
2018-01-30T17:37:40.151Z,3.40
2018-01-30T17:40:10.040Z,3.70
2018-01-30T17:42:40.012Z,3.40
2018-01-30T17:45:09.890Z,3.53
2018-01-30T17:47:39.855Z,3.60
2018-01-30T17:50:09.727Z,2.80
2018-01-30T17:52:39.605Z,2.40
2018-01-30T17:55:09.495Z,3.70
2018-01-30T17:57:39.349Z,3.07
2018-01-30T18:00:09.268Z,2.60
2018-01-30T18:02:39.143Z,2.10
2018-01-30T18:05:09.258Z,3.40
2018-01-30T18:07:39.139Z,2.93
2018-01-30T18:10:09.077Z,3.20
2018-01-30T18:12:38.974Z,2.73
2018-01-30T18:15:08.944Z,3.27
2018-01-30T18:17:38.828Z,2.60
2018-01-30T18:20:08.738Z,4.00
2018-01-30T18:22:38.669Z,2.87
2018-01-30T18:25:08.562Z,2.90
2018-01-30T18:27:38.447Z,2.13
2018-01-30T18:30:08.463Z,3.83
2018-01-30T18:32:38.379Z,4.03
2018-01-30T18:35:08.414Z,3.20
2018-01-30T18:37:38.341Z,4.40
2018-01-30T18:40:08.234Z,3.40
2018-01-30T18:45:20.225Z,4.03
2018-01-30T18:47:50.238Z,3.60
2018-01-30T18:50:20.140Z,5.00
2018-01-30T18:52:50.118Z,4.07
2018-01-30T18:55:20.023Z,3.50
2018-01-30T18:57:49.915Z,4.20
2018-01-30T19:00:19.919Z,3.93
2018-01-30T19:02:50.004Z,4.57
2018-01-30T19:05:19.911Z,3.93
2018-01-30T19:07:49.781Z,4.13
2018-01-30T19:10:19.843Z,3.70
2018-01-30T19:12:49.772Z,4.10
2018-01-30T19:15:19.681Z,4.23
2018-01-30T19:17:49.579Z,4.60
2018-01-30T19:20:19.605Z,5.40
2018-01-30T19:22:49.760Z,5.33
2018-01-30T19:25:20.043Z,4.27
2018-01-30T19:27:50.134Z,4.20
2018-01-30T19:30:20.191Z,4.90
2018-01-30T19:32:50.582Z,4.63
2018-01-30T19:35:21.665Z,5.20
2018-01-30T19:37:51.929Z,5.93
2018-01-30T19:40:21.997Z,5.50
2018-01-30T19:42:51.942Z,6.27
2018-01-30T19:45:22.085Z,6.43
2018-01-30T19:47:52.762Z,5.80
2018-01-30T19:50:22.822Z,9.10
2018-01-30T19:52:52.865Z,6.30
2018-01-30T19:55:22.929Z,7.87
2018-01-30T19:57:52.955Z,7.93
2018-01-30T20:00:22.999Z,8.17
2018-01-30T20:02:53.220Z,8.93
2018-01-30T20:05:23.500Z,9.07
2018-01-30T20:07:53.761Z,7.90
2018-01-30T20:10:23.785Z,8.33
2018-01-30T20:12:53.819Z,10.70
2018-01-30T20:15:23.942Z,9.00
2018-01-30T20:17:54.118Z,9.93
2018-01-30T20:20:24.242Z,9.90
2018-01-30T20:22:54.297Z,11.13
2018-01-30T20:25:24.397Z,11.10
2018-01-30T20:27:54.354Z,12.27
2018-01-30T20:30:24.423Z,11.53
2018-01-30T20:32:54.446Z,12.50
2018-01-30T20:35:24.426Z,12.93
2018-01-30T20:37:54.361Z,13.60
2018-01-30T20:40:24.482Z,12.50
2018-01-30T20:42:54.733Z,11.93
2018-01-30T20:45:24.957Z,12.70
2018-01-30T20:47:54.978Z,12.63
2018-01-30T20:50:24.956Z,11.83
2018-01-30T20:52:55.150Z,12.10
2018-01-30T20:55:25.207Z,14.03
2018-01-30T20:57:55.313Z,12.93
2018-01-30T21:00:25.648Z,12.17
2018-01-30T21:02:56.742Z,11.03
2018-01-30T21:05:26.896Z,12.77
2018-01-30T21:07:57.719Z,13.10
2018-01-30T21:10:28.605Z,13.67
2018-01-30T21:12:58.563Z,14.87
2018-01-30T21:15:28.549Z,16.47
2018-01-30T21:17:58.489Z,14.07
2018-01-30T21:20:28.743Z,15.93
2018-01-30T21:22:58.906Z,14.60
2018-01-30T21:25:28.955Z,14.77
2018-01-30T21:27:59.168Z,15.70
2018-01-30T21:30:29.370Z,16.40
2018-01-30T21:32:59.664Z,15.00
2018-01-30T21:35:29.909Z,15.43
2018-01-30T21:38:00.230Z,15.67
2018-01-30T21:40:30.391Z,16.47
2018-01-30T21:43:00.592Z,14.00
2018-01-30T21:45:30.696Z,15.40
2018-01-30T21:48:00.742Z,15.80
2018-01-30T21:50:30.957Z,16.37
2018-01-30T21:53:01.818Z,15.57
2018-01-30T21:55:32.127Z,16.97
2018-01-30T21:58:03.908Z,16.90
2018-01-30T22:00:34.473Z,17.27
2018-01-30T22:03:07.596Z,17.60
2018-01-30T22:05:46.576Z,18.13
2018-01-30T22:17:34.903Z,19.20
2018-01-30T22:20:12.067Z,18.80
2018-01-30T22:22:45.271Z,20.10
2018-01-30T22:25:15.577Z,21.70
2018-01-30T22:27:49.765Z,21.47
2018-01-30T22:30:25.265Z,23.17
2018-01-30T22:32:58.737Z,22.77
2018-01-30T22:35:29.238Z,24.00
2018-01-30T22:37:59.687Z,24.00
2018-01-30T22:40:30.166Z,23.20
2018-01-30T22:43:02.272Z,24.67
2018-01-30T22:45:32.670Z,26.87
